Time;durP1;ratioP1;P1;durP2;ratioP2;P2;SDS_P1;SDS_P2;PMS_P1;PMS_P2;Temp;Humidity;BMP_temperature;BMP_pressure;BME280_temperature;BME280_humidity;BME280_pressure;Samples;Min_cycle;Max_cycle;Signal;HPM_P1;HPM_P2
2024/01/17 00:02:04;;;;;;;7.28;4.25;;;;;;;-3.99;78.96;97748.84;4910831;29;20583;-80
2024/01/17 00:04:30;;;;;;;10.73;5.50;;;;;;;-4.05;79.17;97758.91;4914232;29;20048;-78
2024/01/17 00:06:57;;;;;;;9.65;4.45;;;;;;;-4.17;79.48;97757.00;4913699;29;20047;-79
2024/01/17 00:09:24;;;;;;;13.02;5.30;;;;;;;-4.42;79.32;97731.22;4912288;29;20077;-74
2024/01/17 00:11:51;;;;;;;9.23;4.78;;;;;;;-4.39;79.19;97749.00;4907039;29;20051;-73
2024/01/17 00:14:17;;;;;;;11.82;5.32;;;;;;;-4.53;78.72;97747.91;4908679;29;20047;-74
2024/01/17 00:16:43;;;;;;;8.80;4.60;;;;;;;-4.57;79.45;97766.47;4909993;29;20044;-71
2024/01/17 00:19:10;;;;;;;10.52;4.50;;;;;;;-4.44;79.17;97798.00;4926573;29;20067;-73
2024/01/17 00:21:36;;;;;;;12.05;4.68;;;;;;;-4.61;79.29;97772.28;4896246;29;20140;-73
2024/01/17 00:24:02;;;;;;;10.63;4.38;;;;;;;-4.39;79.52;97793.88;4912318;29;20108;-73
2024/01/17 00:26:28;;;;;;;9.07;4.32;;;;;;;-4.54;79.04;97771.59;4925283;29;20043;-74
2024/01/17 00:28:55;;;;;;;9.43;4.63;;;;;;;-4.47;79.10;97775.97;4898354;29;20537;-73
2024/01/17 00:31:22;;;;;;;11.38;5.30;;;;;;;-4.19;79.39;97809.47;4907396;29;20102;-74
2024/01/17 00:33:49;;;;;;;9.57;4.97;;;;;;;-4.24;79.39;97798.41;4897415;29;20046;-73
2024/01/17 00:36:16;;;;;;;9.13;4.63;;;;;;;-4.53;79.24;97758.06;4895744;29;20100;-73
2024/01/17 00:38:42;;;;;;;10.85;4.95;;;;;;;-4.11;79.23;97817.25;4926339;29;20538;-72
2024/01/17 00:41:08;;;;;;;10.68;5.00;;;;;;;-4.24;78.88;97801.78;4924468;29;20134;-73
2024/01/17 00:43:35;;;;;;;9.38;3.97;;;;;;;-4.33;78.81;97801.63;4902265;29;20092;-73
2024/01/17 00:46:01;;;;;;;13.73;6.07;;;;;;;-4.67;79.10;97742.59;4893049;29;20098;-74
2024/01/17 00:48:27;;;;;;;11.40;5.18;;;;;;;-4.36;79.26;97811.72;4927063;29;20102;-73
2024/01/17 00:50:54;;;;;;;10.98;5.28;;;;;;;-4.45;79.01;97789.56;4908480;29;20044;-74
2024/01/17 00:53:23;;;;;;;10.35;4.78;;;;;;;-4.48;79.13;97799.66;4909260;29;20036;-74
2024/01/17 00:55:49;;;;;;;11.43;5.50;;;;;;;-4.46;78.68;97807.28;4909777;29;20044;-73
2024/01/17 00:58:14;;;;;;;13.40;5.45;;;;;;;-4.63;78.92;97786.66;4909559;29;20040;-73
2024/01/17 01:00:43;;;;;;;14.00;5.28;;;;;;;-4.66;78.76;97791.69;4925881;29;20434;-73
2024/01/17 01:03:09;;;;;;;14.30;5.82;;;;;;;-4.47;78.78;97828.44;4905852;29;20056;-73
2024/01/17 01:05:35;;;;;;;11.82;5.40;;;;;;;-4.47;78.45;97829.31;4908169;29;20579;-72
2024/01/17 01:08:01;;;;;;;8.13;4.18;;;;;;;-4.64;78.41;97821.34;4908595;29;20039;-70
2024/01/17 01:10:27;;;;;;;12.35;5.20;;;;;;;-4.67;78.26;97840.75;4908697;29;20036;-74
2024/01/17 01:12:53;;;;;;;13.25;5.93;;;;;;;-4.74;78.76;97839.72;4896500;29;20044;-71
2024/01/17 01:15:19;;;;;;;13.88;5.95;;;;;;;-4.79;78.73;97847.25;4925777;29;20035;-73
2024/01/17 01:17:45;;;;;;;13.07;5.50;;;;;;;-4.88;78.40;97853.00;4925431;29;20047;-73
2024/01/17 01:20:11;;;;;;;12.68;5.80;;;;;;;-4.92;78.46;97871.50;4907743;29;20130;-71
2024/01/17 01:22:38;;;;;;;12.10;5.70;;;;;;;-5.06;78.51;97860.22;4895341;29;20048;-73
2024/01/17 01:25:05;;;;;;;12.27;5.82;;;;;;;-4.99;78.46;97879.84;4923776;29;20071;-72
2024/01/17 01:27:31;;;;;;;10.40;5.20;;;;;;;-5.01;78.24;97881.47;4897689;29;20182;-72
2024/01/17 01:29:57;;;;;;;17.02;6.28;;;;;;;-5.01;78.25;97896.69;4907242;29;20134;-74
2024/01/17 01:32:23;;;;;;;10.80;5.60;;;;;;;-5.19;78.40;97844.72;4924446;29;20132;-74
2024/01/17 01:34:49;;;;;;;14.00;5.43;;;;;;;-5.03;78.33;97871.28;4892502;29;20134;-72
2024/01/17 01:37:15;;;;;;;11.25;6.00;;;;;;;-4.96;78.56;97886.66;4881163;29;20159;-73
2024/01/17 01:39:41;;;;;;;11.70;5.45;;;;;;;-4.91;78.16;97890.16;4925022;29;20497;-76
2024/01/17 01:42:09;;;;;;;12.02;5.10;;;;;;;-4.95;77.97;97911.19;4878527;29;20545;-75
2024/01/17 01:44:35;;;;;;;12.93;5.28;;;;;;;-5.18;78.27;97892.06;4892541;29;20419;-75
2024/01/17 01:47:01;;;;;;;13.00;5.75;;;;;;;-5.14;78.59;97888.78;4891998;29;20112;-77
2024/01/17 01:49:27;;;;;;;11.20;5.38;;;;;;;-5.41;78.00;97850.97;4891549;29;20543;-73
2024/01/17 01:51:53;;;;;;;13.13;5.70;;;;;;;-5.10;78.29;97904.09;4904338;29;20124;-72
2024/01/17 01:54:22;;;;;;;11.77;5.28;;;;;;;-5.13;78.42;97907.41;4884462;29;20055;-73
2024/01/17 01:56:50;;;;;;;11.13;5.47;;;;;;;-5.20;78.11;97911.50;4905976;29;20415;-74
2024/01/17 01:59:17;;;;;;;13.52;5.47;;;;;;;-5.48;78.13;97879.53;4882192;29;20044;-74
2024/01/17 02:01:43;;;;;;;13.93;5.53;;;;;;;-5.50;78.04;97881.16;4905858;29;20066;-73
2024/01/17 02:04:10;;;;;;;12.95;5.70;;;;;;;-5.43;78.34;97889.81;4904023;29;20044;-75
2024/01/17 02:06:38;;;;;;;10.45;5.07;;;;;;;-5.62;77.97;97866.50;4904830;29;20161;-75
2024/01/17 02:09:04;;;;;;;14.10;6.03;;;;;;;-5.34;78.38;97922.97;4889275;29;20056;-74
2024/01/17 02:11:31;;;;;;;12.80;5.88;;;;;;;-5.37;77.87;97922.88;4889927;29;20040;-73
2024/01/17 02:14:00;;;;;;;10.65;4.97;;;;;;;-5.17;78.28;97941.97;4905454;29;20059;-74
2024/01/17 02:16:26;;;;;;;12.80;5.60;;;;;;;-5.37;78.28;97903.47;4903169;29;20068;-74
2024/01/17 02:18:53;;;;;;;11.30;4.95;;;;;;;-5.15;78.24;97935.28;4901908;29;20127;-76
2024/01/17 02:21:20;;;;;;;13.15;5.47;;;;;;;-5.07;78.16;97944.75;4920736;29;20036;-75
2024/01/17 02:23:50;;;;;;;10.60;4.70;;;;;;;-5.07;77.71;97953.22;4904726;29;20138;-76
2024/01/17 02:26:16;;;;;;;11.38;5.47;;;;;;;-5.23;77.97;97931.72;4906932;29;20033;-76
2024/01/17 02:28:42;;;;;;;13.38;5.80;;;;;;;-5.13;77.45;97958.16;4891505;29;20051;-76
2024/01/17 02:31:09;;;;;;;8.85;5.22;;;;;;;-5.30;78.06;97924.78;4904175;29;20125;-75
2024/01/17 02:33:35;;;;;;;12.90;5.13;;;;;;;-5.26;77.72;97944.31;4907257;29;20506;-76
2024/01/17 02:36:02;;;;;;;11.48;5.53;;;;;;;-5.23;77.74;97946.94;4893490;29;20048;-74
2024/01/17 02:38:28;;;;;;;11.27;5.53;;;;;;;-5.26;77.91;97966.25;4910010;29;20442;-75
2024/01/17 02:40:54;;;;;;;10.38;5.03;;;;;;;-5.23;78.02;97977.38;4909418;29;20534;-74
2024/01/17 02:43:20;;;;;;;11.77;6.07;;;;;;;-5.65;77.67;97925.59;4895670;29;20048;-75
2024/01/17 02:45:47;;;;;;;11.57;5.13;;;;;;;-5.49;77.79;97949.66;4927291;29;20040;-75
2024/01/17 02:48:13;;;;;;;12.10;5.70;;;;;;;-5.47;78.19;97945.50;4928854;29;20130;-74
2024/01/17 02:50:39;;;;;;;13.75;5.95;;;;;;;-6.06;77.51;97870.53;4911377;29;20498;-75
2024/01/17 02:53:06;;;;;;;13.77;6.13;;;;;;;-5.47;78.12;97978.47;4910830;29;20094;-74
2024/01/17 02:55:33;;;;;;;14.60;6.43;;;;;;;-5.66;77.38;97941.63;4889896;29;20078;-75
2024/01/17 02:58:02;;;;;;;13.50;5.85;;;;;;;-5.64;77.45;97972.94;4894932;29;20051;-75
2024/01/17 03:00:28;;;;;;;11.90;5.20;;;;;;;-5.49;77.61;98000.38;4914240;29;20050;-79
2024/01/17 03:02:54;;;;;;;11.65;6.35;;;;;;;-5.52;77.40;98002.81;4930968;29;20198;-79
2024/01/17 03:05:20;;;;;;;13.82;6.50;;;;;;;-5.77;77.45;97959.09;4899710;29;20031;-79
2024/01/17 03:07:46;;;;;;;14.13;5.65;;;;;;;-5.70;77.53;97995.59;4912533;29;20043;-78
2024/01/17 03:10:13;;;;;;;13.82;5.70;;;;;;;-5.84;77.00;97977.47;4897047;29;20043;-78
2024/01/17 03:12:40;;;;;;;14.00;5.93;;;;;;;-5.71;76.89;98001.47;4913796;29;20040;-79
2024/01/17 03:15:10;;;;;;;14.95;6.05;;;;;;;-5.62;77.46;98011.88;4898320;29;20058;-78
2024/01/17 03:17:38;;;;;;;11.95;5.32;;;;;;;-5.70;77.61;98018.38;4913500;29;20131;-77
2024/01/17 03:20:06;;;;;;;15.18;6.45;;;;;;;-5.56;78.19;98016.22;4912185;29;20079;-77
2024/01/17 03:22:32;;;;;;;13.80;5.82;;;;;;;-5.45;77.76;98007.25;4910583;29;20047;-76
2024/01/17 03:24:59;;;;;;;15.02;6.55;;;;;;;-5.36;77.55;98018.44;4883934;29;20511;-77
2024/01/17 03:27:26;;;;;;;14.20;6.85;;;;;;;-5.30;77.09;98036.34;4927292;29;20071;-79
2024/01/17 03:29:52;;;;;;;15.82;6.95;;;;;;;-5.33;76.87;98038.81;4911133;29;20193;-77
2024/01/17 03:32:18;;;;;;;14.70;6.18;;;;;;;-5.43;76.92;98040.25;4927335;29;20062;-77
2024/01/17 03:34:44;;;;;;;12.52;5.75;;;;;;;-5.51;77.32;98016.34;4928674;29;20059;-79
2024/01/17 03:37:10;;;;;;;14.57;6.65;;;;;;;-5.31;77.42;98050.72;4914362;29;20054;-78
2024/01/17 03:39:36;;;;;;;15.73;7.22;;;;;;;-5.36;77.02;98061.53;4911529;29;20496;-77
2024/01/17 03:42:05;;;;;;;10.35;5.47;;;;;;;-5.48;76.66;98046.84;4911174;29;20089;-78
2024/01/17 03:44:32;;;;;;;12.57;5.70;;;;;;;-5.72;76.60;98021.72;4912309;29;20070;-77
2024/01/17 03:46:58;;;;;;;13.40;6.07;;;;;;;-5.73;76.64;98030.13;4926238;29;20133;-77
2024/01/17 03:49:24;;;;;;;12.15;5.03;;;;;;;-5.56;77.06;98058.47;4914535;29;20075;-76
2024/01/17 03:51:49;;;;;;;12.45;5.30;;;;;;;-5.48;77.00;98083.22;4929049;29;20103;-78
2024/01/17 03:54:15;;;;;;;16.52;5.55;;;;;;;-5.56;76.83;98082.16;4912256;29;20050;-77
2024/01/17 03:56:41;;;;;;;9.45;4.05;;;;;;;-5.49;76.97;98099.25;4912836;29;20048;-78
2024/01/17 03:59:07;;;;;;;13.93;4.32;;;;;;;-5.83;76.75;98050.13;4929594;29;20040;-76
2024/01/17 04:01:42;;;;;;;12.93;4.57;;;;;;;-5.48;76.92;98113.66;4926382;29;20174;-76
2024/01/17 04:04:08;;;;;;;15.05;5.57;;;;;;;-5.72;76.84;98096.06;4925659;29;20050;-73
2024/01/17 04:06:34;;;;;;;11.65;4.78;;;;;;;-5.64;77.06;98124.19;4909872;29;20043;-74
2024/01/17 04:09:00;;;;;;;10.15;4.95;;;;;;;-6.01;76.32;98080.91;4897333;29;20059;-74
2024/01/17 04:11:26;;;;;;;10.85;4.47;;;;;;;-6.16;76.18;98071.19;4911942;29;20043;-76
2024/01/17 04:13:52;;;;;;;13.38;5.00;;;;;;;-6.12;76.51;98089.84;4910596;29;20143;-74
2024/01/17 04:16:18;;;;;;;11.75;5.30;;;;;;;-6.31;76.35;98055.53;4926754;29;20062;-74
2024/01/17 04:18:44;;;;;;;13.40;4.90;;;;;;;-5.79;76.92;98153.31;4909479;29;20138;-76
2024/01/17 04:21:19;;;;;;;13.15;5.38;;;;;;;-5.68;76.80;98165.44;4889836;29;20044;-73
2024/01/17 04:23:47;;;;;;;16.33;4.90;;;;;;;-5.72;76.23;98161.94;4909602;29;20040;-75
2024/01/17 04:26:23;;;;;;;11.95;4.53;;;;;;;-6.07;76.49;98101.00;4926539;29;20098;-73
2024/01/17 04:28:53;;;;;;;13.05;4.93;;;;;;;-5.64;77.47;98180.78;4892271;29;20058;-71
2024/01/17 04:31:26;;;;;;;9.90;5.18;;;;;;;-5.52;76.89;98187.06;4911064;29;20039;-79
2024/01/17 04:33:53;;;;;;;11.98;4.90;;;;;;;-5.81;76.65;98143.94;4911872;29;20538;-75
2024/01/17 04:36:20;;;;;;;10.10;4.97;;;;;;;-5.54;76.97;98184.44;4910517;29;20048;-74
2024/01/17 04:38:46;;;;;;;8.73;4.18;;;;;;;-5.53;76.47;98178.56;4925883;29;20110;-74
2024/01/17 04:41:15;;;;;;;11.43;5.13;;;;;;;-5.60;76.85;98181.72;4911732;29;20073;-75
2024/01/17 04:43:44;;;;;;;10.60;4.63;;;;;;;-5.58;76.43;98199.53;4924398;29;21021;-74
2024/01/17 04:46:14;;;;;;;8.60;4.20;;;;;;;-5.63;76.43;98214.63;4926106;29;20031;-75
2024/01/17 04:48:42;;;;;;;10.65;4.82;;;;;;;-5.73;76.50;98192.31;4897259;29;20126;-74
2024/01/17 04:51:09;;;;;;;9.93;4.88;;;;;;;-5.63;76.89;98212.94;4924453;29;20087;-75
2024/01/17 04:53:41;;;;;;;12.10;4.72;;;;;;;-5.58;76.77;98233.34;4909691;29;20126;-75
2024/01/17 04:56:09;;;;;;;10.45;4.35;;;;;;;-5.77;76.92;98207.44;4912214;29;20047;-74
2024/01/17 04:58:36;;;;;;;11.98;5.10;;;;;;;-5.57;76.17;98240.13;4903815;29;20050;-75
2024/01/17 05:01:05;;;;;;;9.68;4.45;;;;;;;-5.63;76.46;98245.88;4909453;29;20131;-74
2024/01/17 05:03:32;;;;;;;10.50;4.32;;;;;;;-5.88;76.81;98216.38;4907295;29;20050;-72
2024/01/17 05:06:00;;;;;;;10.02;4.75;;;;;;;-5.60;77.15;98268.78;4881360;29;20066;-70
2024/01/17 05:08:26;;;;;;;10.48;4.80;;;;;;;-5.82;76.53;98231.75;4927434;29;20063;-74
2024/01/17 05:10:52;;;;;;;14.02;5.18;;;;;;;-5.81;76.66;98215.75;4894785;29;20048;-72
2024/01/17 05:13:18;;;;;;;9.57;4.50;;;;;;;-5.42;76.97;98285.38;4908670;29;20510;-74
2024/01/17 05:15:44;;;;;;;11.02;5.07;;;;;;;-5.39;77.10;98287.13;4925240;29;20051;-73
2024/01/17 05:18:10;;;;;;;10.70;4.18;;;;;;;-5.64;76.12;98253.44;4910552;29;20506;-72
2024/01/17 05:20:40;;;;;;;9.10;3.90;;;;;;;-5.82;76.52;98259.63;4895294;29;20044;-73
2024/01/17 05:23:09;;;;;;;10.45;4.43;;;;;;;-5.83;75.59;98295.94;4908165;29;20130;-74
2024/01/17 05:25:35;;;;;;;9.18;4.20;;;;;;;-6.21;76.51;98240.72;4906630;29;20049;-73
2024/01/17 05:28:01;;;;;;;8.35;3.78;;;;;;;-5.90;76.83;98297.41;4907801;29;20047;-73
2024/01/17 05:30:27;;;;;;;7.65;3.83;;;;;;;-5.92;76.34;98299.03;4922589;29;20043;-72
2024/01/17 05:32:55;;;;;;;9.13;3.83;;;;;;;-5.84;76.42;98323.75;4908537;29;20098;-72
2024/01/17 05:35:22;;;;;;;7.90;4.07;;;;;;;-5.77;76.75;98325.69;4906080;29;20675;-69
2024/01/17 05:37:48;;;;;;;8.32;3.70;;;;;;;-5.96;76.87;98283.69;4924004;29;20138;-70
2024/01/17 05:40:15;;;;;;;11.73;4.15;;;;;;;-5.92;76.60;98303.25;4910931;29;20043;-72
2024/01/17 05:42:44;;;;;;;9.63;4.10;;;;;;;-5.84;76.49;98332.22;4912383;29;20082;-72
2024/01/17 05:45:10;;;;;;;8.35;4.00;;;;;;;-6.05;76.78;98309.59;4896648;29;20048;-73
2024/01/17 05:47:37;;;;;;;10.60;4.25;;;;;;;-6.17;76.38;98315.13;4908522;29;20138;-73
2024/01/17 05:50:08;;;;;;;10.68;3.83;;;;;;;-6.15;76.48;98340.50;4907224;29;20044;-70
2024/01/17 05:52:39;;;;;;;12.18;4.47;;;;;;;-6.30;76.24;98351.81;4891352;29;20138;-71
2024/01/17 05:55:10;;;;;;;7.05;3.58;;;;;;;-6.57;76.50;98351.72;4897206;29;20375;-71
2024/01/17 05:57:37;;;;;;;9.93;4.00;;;;;;;-6.78;76.23;98350.13;4894510;29;20040;-72
2024/01/17 06:00:10;;;;;;;9.95;3.72;;;;;;;-6.68;76.88;98381.69;4925335;29;20047;-73
2024/01/17 06:02:38;;;;;;;6.03;3.40;;;;;;;-6.77;76.79;98374.63;4924443;29;20044;-73
2024/01/17 06:05:04;;;;;;;8.23;3.35;;;;;;;-7.67;76.98;98219.56;4884854;29;20096;-71
2024/01/17 06:07:32;;;;;;;9.10;3.97;;;;;;;-6.78;76.71;98374.53;4909806;29;20044;-72
2024/01/17 06:09:58;;;;;;;11.48;3.30;;;;;;;-6.88;76.51;98378.41;4883365;29;20403;-72
2024/01/17 06:12:24;;;;;;;10.30;4.30;;;;;;;-6.87;76.92;98396.19;4881988;29;20207;-71
2024/01/17 06:14:51;;;;;;;13.13;3.83;;;;;;;-6.99;77.25;98367.88;4898731;29;20047;-73
2024/01/17 06:17:17;;;;;;;9.65;3.42;;;;;;;-6.84;77.22;98401.34;4913428;29;20522;-71
2024/01/17 06:19:43;;;;;;;7.13;3.30;;;;;;;-7.10;77.21;98375.06;4912723;29;20035;-73
2024/01/17 06:22:09;;;;;;;7.13;3.40;;;;;;;-7.31;76.49;98347.28;4883945;29;20131;-73
2024/01/17 06:24:36;;;;;;;8.43;3.60;;;;;;;-7.14;77.19;98378.25;4914560;29;20048;-72
2024/01/17 06:27:02;;;;;;;5.55;3.03;;;;;;;-7.05;77.19;98403.91;4897277;29;20143;-72
2024/01/17 06:29:30;;;;;;;6.97;2.95;;;;;;;-7.06;77.31;98398.81;4893631;29;20209;-72
2024/01/17 06:31:57;;;;;;;10.20;3.13;;;;;;;-7.32;77.11;98351.47;4888690;29;20123;-70
2024/01/17 06:34:23;;;;;;;7.53;3.15;;;;;;;-7.10;77.33;98385.16;4897267;29;20043;-72
2024/01/17 06:36:49;;;;;;;8.10;3.00;;;;;;;-7.23;77.45;98362.75;4926523;29;20596;-70
2024/01/17 06:39:16;;;;;;;6.45;3.42;;;;;;;-6.87;77.50;98424.00;4912172;29;20051;-73
2024/01/17 06:41:43;;;;;;;8.68;3.25;;;;;;;-7.14;77.40;98383.31;4925719;29;20043;-80
2024/01/17 06:44:11;;;;;;;6.55;3.03;;;;;;;-7.50;77.73;98318.75;4905881;29;20065;-73
2024/01/17 06:46:37;;;;;;;9.73;3.65;;;;;;;-6.93;77.80;98406.06;4904053;29;20535;-72
2024/01/17 06:49:04;;;;;;;6.90;3.90;;;;;;;-7.16;77.43;98379.88;4906487;29;20051;-74
2024/01/17 06:51:33;;;;;;;7.57;3.40;;;;;;;-6.96;77.25;98439.69;4919537;29;20203;-72
2024/01/17 06:54:09;;;;;;;8.77;3.70;;;;;;;-7.02;77.55;98421.75;4905173;29;20063;-71
2024/01/17 06:56:38;;;;;;;9.25;3.50;;;;;;;-6.90;77.54;98443.25;4890390;29;20055;-73
2024/01/17 06:59:05;;;;;;;7.40;3.60;;;;;;;-7.06;77.67;98419.91;4899824;29;20415;-73
2024/01/17 07:01:37;;;;;;;5.82;3.10;;;;;;;-6.87;77.13;98456.03;4905144;29;20130;-73
2024/01/17 07:04:03;;;;;;;5.88;3.03;;;;;;;-7.53;77.47;98365.78;4896791;29;20048;-71
2024/01/17 07:06:31;;;;;;;7.53;3.45;;;;;;;-7.46;77.18;98377.88;4903406;29;20055;-71
2024/01/17 07:08:59;;;;;;;10.82;4.13;;;;;;;-6.83;77.77;98481.50;4919574;29;20040;-70
2024/01/17 07:11:25;;;;;;;8.93;3.22;;;;;;;-7.02;77.37;98462.22;4916408;29;20399;-73
2024/01/17 07:13:57;;;;;;;8.35;3.72;;;;;;;-6.94;77.50;98484.41;4900147;29;20050;-71
2024/01/17 07:16:33;;;;;;;5.97;3.35;;;;;;;-6.97;77.37;98486.03;4917352;29;20044;-70
2024/01/17 07:19:03;;;;;;;7.18;3.72;;;;;;;-7.04;77.98;98476.47;4902596;29;20026;-70
2024/01/17 07:21:39;;;;;;;8.23;3.13;;;;;;;-6.71;77.53;98514.00;4917364;29;20041;-71
2024/01/17 07:24:10;;;;;;;8.13;3.75;;;;;;;-7.09;77.58;98450.13;4899458;29;20040;-70
2024/01/17 07:26:37;;;;;;;11.55;3.25;;;;;;;-6.71;77.33;98503.03;4901559;29;20052;-69
2024/01/17 07:29:06;;;;;;;11.77;3.88;;;;;;;-6.69;77.50;98522.53;4917710;29;20091;-74
2024/01/17 07:31:32;;;;;;;7.32;3.30;;;;;;;-6.76;77.42;98517.16;4920829;29;20151;-73
2024/01/17 07:33:59;;;;;;;5.22;2.97;;;;;;;-6.75;77.54;98494.47;4918215;29;20043;-73
2024/01/17 07:36:28;;;;;;;9.10;3.42;;;;;;;-6.52;77.48;98514.75;4920547;29;20032;-72
2024/01/17 07:38:59;;;;;;;7.45;3.50;;;;;;;-6.23;77.82;98550.44;4920543;29;20047;-71
2024/01/17 07:41:34;;;;;;;8.50;2.85;;;;;;;-6.40;77.71;98497.47;4918675;29;20064;-73
2024/01/17 07:44:04;;;;;;;8.45;3.75;;;;;;;-6.08;77.33;98547.63;4901637;29;20074;-76
2024/01/17 07:46:31;;;;;;;6.88;3.40;;;;;;;-6.62;77.40;98488.22;4904593;29;20036;-74
2024/01/17 07:49:03;;;;;;;9.55;3.22;;;;;;;-6.22;76.78;98559.75;4920850;29;20491;-75
2024/01/17 07:51:33;;;;;;;8.65;3.70;;;;;;;-6.38;76.61;98555.75;4916859;29;20233;-74
2024/01/17 07:54:06;;;;;;;7.63;3.55;;;;;;;-6.99;76.71;98482.56;4917044;29;20040;-79
2024/01/17 07:56:40;;;;;;;6.25;3.30;;;;;;;-6.85;76.88;98522.72;4916306;29;21603;-77
2024/01/17 07:59:09;;;;;;;7.90;3.42;;;;;;;-6.23;76.82;98590.94;4914592;29;20044;-71
2024/01/17 08:01:39;;;;;;;8.07;3.47;;;;;;;-6.37;77.68;98563.44;4927059;29;20044;-80
2024/01/17 08:04:20;;;;;;;7.60;3.60;;;;;;;-6.70;77.41;98489.59;5005918;23;20060;-78
2024/01/17 08:06:49;;;;;;;7.35;3.17;;;;;;;-5.79;77.24;98609.47;4873864;29;20041;-72
2024/01/17 08:09:28;;;;;;;9.65;3.88;;;;;;;-5.49;77.15;98636.78;4879581;29;20114;-72
2024/01/17 08:11:57;;;;;;;11.45;4.57;;;;;;;-5.56;76.98;98624.66;4875435;29;20115;-72
2024/01/17 08:14:23;;;;;;;8.93;3.53;;;;;;;-5.41;77.20;98651.41;4879407;29;20503;-70
2024/01/17 08:16:56;;;;;;;7.63;3.67;;;;;;;-5.46;77.51;98618.25;4877879;29;20048;-74
2024/01/17 08:19:25;;;;;;;;;;;;;;;-5.17;76.82;98651.41;4882527;29;20036;-75
2024/01/17 08:21:58;;;;;;;9.65;4.15;;;;;;;-5.49;76.80;98582.66;4866222;29;20013;-76
2024/01/17 08:24:31;;;;;;;10.25;4.00;;;;;;;-4.86;76.94;98660.97;4883191;29;20139;-75
2024/01/17 08:26:58;;;;;;;8.25;4.18;;;;;;;-5.14;77.16;98600.78;4864113;29;20069;-75
2024/01/17 08:29:27;;;;;;;8.27;3.70;;;;;;;-4.90;76.83;98640.50;4869387;29;20041;-75
2024/01/17 08:31:56;;;;;;;6.90;3.22;;;;;;;-5.30;76.98;98597.72;4883396;29;20044;-76
2024/01/17 08:34:22;;;;;;;6.55;3.13;;;;;;;-5.41;76.48;98614.22;4883474;29;20041;-76
2024/01/17 08:36:54;;;;;;;9.18;3.80;;;;;;;-5.69;76.56;98623.34;4874905;29;20046;-77
2024/01/17 08:39:27;;;;;;;8.10;3.70;;;;;;;-5.75;76.67;98618.06;4873957;29;20049;-76
2024/01/17 08:42:29;;;;;;;8.38;3.88;;;;;;;-5.98;76.72;98591.84;4881627;29;20045;-75
2024/01/17 08:45:09;;;;;;;9.20;3.97;;;;;;;-5.22;77.20;98680.81;4873026;29;20063;-76
2024/01/17 08:47:38;;;;;;;9.43;3.90;;;;;;;-4.90;77.16;98696.34;4883964;29;20029;-76
2024/01/17 08:50:06;;;;;;;8.43;3.20;;;;;;;-4.67;77.02;98683.59;4886223;29;20033;-76
2024/01/17 08:52:32;;;;;;;9.13;3.35;;;;;;;-4.50;77.22;98663.81;4880262;29;20041;-75
2024/01/17 08:55:19;;;;;;;;;;;;;;;;;;;;;
2024/01/17 08:57:55;;;;;;;8.18;3.30;;;;;;;-4.33;76.96;98705.91;4871592;29;20497;-73
2024/01/17 09:00:21;;;;;;;7.30;3.38;;;;;;;-4.85;76.66;98608.50;4870663;29;20073;-76
2024/01/17 09:02:48;;;;;;;6.32;3.40;;;;;;;-4.43;76.21;98697.13;4876680;29;20060;-77
2024/01/17 09:05:18;;;;;;;7.93;3.85;;;;;;;-4.47;76.32;98702.03;4906066;29;20040;-74
2024/01/17 09:07:49;;;;;;;10.13;3.83;;;;;;;-4.63;76.87;98695.59;4889726;29;20045;-76
2024/01/17 09:10:17;;;;;;;7.38;3.53;;;;;;;-4.42;77.27;98742.03;4906952;29;20807;-75
2024/01/17 09:12:44;;;;;;;9.55;4.15;;;;;;;-4.30;76.74;98731.38;4903720;29;20043;-73
2024/01/17 09:15:17;;;;;;;8.60;3.50;;;;;;;-4.40;77.14;98737.00;4902809;29;20036;-76
2024/01/17 09:17:46;;;;;;;;;;;;;;;-4.39;77.14;98746.34;4903304;29;20044;-74
2024/01/17 09:20:14;;;;;;;7.07;3.35;;;;;;;-4.46;77.29;98745.28;4918241;29;19977;-77
2024/01/17 09:22:51;;;;;;;7.13;3.38;;;;;;;-5.05;77.17;98671.28;4894430;29;20141;-78
2024/01/17 09:25:46;;;;;;;8.48;4.10;;;;;;;-5.47;76.62;98622.47;4888202;29;20058;-76
2024/01/17 09:28:15;;;;;;;8.25;3.40;;;;;;;-4.79;76.83;98744.94;4921233;29;20075;-75
2024/01/17 09:31:02;;;;;;;7.53;3.55;;;;;;;-5.30;76.81;98672.94;4881678;29;20048;-74
2024/01/17 09:33:35;;;;;;;8.10;3.53;;;;;;;-4.87;77.22;98752.31;4906354;29;20048;-74
2024/01/17 09:36:34;;;;;;;6.60;3.50;;;;;;;-4.79;77.32;98770.34;4918248;29;20016;-77
2024/01/17 09:39:07;;;;;;;12.30;4.03;;;;;;;-4.91;77.62;98741.16;4902351;29;20051;-78
2024/01/17 09:41:42;;;;;;;7.93;3.97;;;;;;;-5.30;76.76;98691.56;4890786;29;20036;-77
2024/01/17 09:45:01;;;;;;;8.57;3.65;;;;;;;-4.95;77.57;98751.16;4901425;29;20048;-76
2024/01/17 09:47:36;;;;;;;9.18;3.65;;;;;;;-5.34;76.93;98693.91;4893164;29;20137;-75
2024/01/17 09:50:06;;;;;;;9.68;4.05;;;;;;;-4.85;77.19;98776.91;4901946;29;20048;-76
2024/01/17 09:52:46;;;;;;;6.97;3.97;;;;;;;-4.72;77.44;98787.50;4913380;29;20040;-80
2024/01/17 09:55:16;;;;;;;12.07;4.10;;;;;;;-4.71;76.86;98784.16;4898950;29;20434;-75
2024/01/17 09:58:01;;;;;;;13.15;3.92;;;;;;;-4.57;77.03;98813.47;4875773;29;20048;-77
2024/01/17 10:00:28;;;;;;;6.28;3.47;;;;;;;-4.64;76.42;98803.03;4891676;29;20084;-73
2024/01/17 10:03:09;;;;;;;8.10;3.53;;;;;;;-4.53;77.22;98816.97;4908539;29;20115;-72
2024/01/17 10:05:55;;;;;;;8.65;3.80;;;;;;;-4.43;77.51;98820.69;4917368;29;20049;-73
2024/01/17 10:08:27;;;;;;;7.18;3.63;;;;;;;-4.56;76.88;98799.97;4905655;29;20055;-72
2024/01/17 10:11:03;;;;;;;8.60;4.40;;;;;;;-4.58;77.34;98790.53;4894467;29;20058;-83
2024/01/17 10:13:31;;;;;;;6.68;3.90;;;;;;;-4.64;77.50;98814.03;4879043;29;20080;-78
2024/01/17 10:16:05;;;;;;;12.50;4.47;;;;;;;-4.56;77.53;98812.66;4901141;29;20047;-79
2024/01/17 10:18:32;;;;;;;8.88;4.10;;;;;;;-4.58;77.70;98816.81;4883974;29;20044;-80
2024/01/17 10:21:03;;;;;;;7.43;4.00;;;;;;;-4.79;77.07;98810.97;4878103;29;20089;-80
2024/01/17 10:23:32;;;;;;;6.43;3.55;;;;;;;-5.02;77.12;98783.91;4924752;29;20029;-77
2024/01/17 10:26:02;;;;;;;7.10;3.80;;;;;;;-4.70;77.70;98831.59;4880787;29;20538;-78
2024/01/17 10:28:39;;;;;;;8.40;4.07;;;;;;;-4.75;77.11;98825.50;4895524;29;20295;-72
2024/01/17 10:31:22;;;;;;;8.35;3.40;;;;;;;-4.58;77.53;98865.06;4903995;29;20043;-72
2024/01/17 10:33:54;;;;;;;9.60;4.30;;;;;;;-4.47;77.97;98862.03;4892524;29;20049;-76
2024/01/17 10:36:37;;;;;;;7.00;3.53;;;;;;;-4.48;77.04;98862.84;4889948;29;20090;-73
2024/01/17 10:39:06;;;;;;;6.93;3.45;;;;;;;-5.01;77.18;98785.63;4875903;29;20044;-77
2024/01/17 10:41:55;;;;;;;7.97;3.67;;;;;;;-5.29;77.04;98735.53;4890843;29;20036;-77
2024/01/17 10:45:05;;;;;;;6.70;3.25;;;;;;;-4.93;77.38;98823.13;4893442;29;20039;-73
2024/01/17 10:47:59;;;;;;;6.32;3.28;;;;;;;-5.26;77.59;98809.22;4899939;29;20051;-75
2024/01/17 10:50:50;;;;;;;8.75;4.20;;;;;;;-4.93;77.89;98889.97;4904913;29;20036;-71
2024/01/17 10:53:20;;;;;;;10.15;3.78;;;;;;;-5.32;77.47;98839.41;4884444;29;20068;-75
2024/01/17 10:55:50;;;;;;;9.52;3.78;;;;;;;-4.99;77.83;98890.63;4873418;29;20044;-75
2024/01/17 10:58:23;;;;;;;7.65;3.50;;;;;;;-5.15;77.34;98885.75;4878145;29;20044;-77
2024/01/17 11:01:17;;;;;;;7.07;3.20;;;;;;;-5.16;77.77;98899.25;4889944;29;21198;-75
2024/01/17 11:04:39;;;;;;;6.05;2.83;;;;;;;-5.69;77.38;98831.22;4900660;29;20056;-69
2024/01/17 11:07:08;;;;;;;7.55;3.10;;;;;;;-5.18;78.01;98911.84;4883204;29;20064;-71
2024/01/17 11:09:48;;;;;;;5.65;3.15;;;;;;;-5.99;76.99;98821.56;4895740;29;20054;-71
2024/01/17 11:12:45;;;;;;;8.13;3.03;;;;;;;-5.42;78.26;98931.19;4895252;29;20075;-71
2024/01/17 11:15:14;;;;;;;6.25;2.70;;;;;;;-5.42;78.09;98923.56;4895373;29;20712;-70
2024/01/17 11:17:45;;;;;;;9.38;3.50;;;;;;;-5.47;78.12;98936.03;4896093;29;20119;-70
2024/01/17 11:20:25;;;;;;;6.07;3.20;;;;;;;-6.09;78.04;98827.94;4880535;29;20074;-70
2024/01/17 11:22:57;;;;;;;6.78;3.53;;;;;;;-6.02;77.81;98844.28;4877070;29;20072;-72
2024/01/17 11:25:46;;;;;;;9.65;4.20;;;;;;;-5.43;78.09;98955.66;4901419;29;20036;-70
2024/01/17 11:28:36;;;;;;;6.55;3.40;;;;;;;-5.51;78.36;98964.59;4881907;29;20049;-72
2024/01/17 11:32:17;;;;;;;7.25;3.00;;;;;;;-5.75;77.67;98971.25;4881941;29;20144;-70
2024/01/17 11:35:07;;;;;;;6.78;3.17;;;;;;;-5.87;77.95;98964.78;4774730;29;20157;-70
2024/01/17 11:37:39;;;;;;;8.48;3.55;;;;;;;-5.92;77.90;98983.19;4796179;29;20065;-71
2024/01/17 11:40:25;;;;;;;7.50;3.08;;;;;;;-6.07;77.88;98963.13;4855392;29;20044;-70
2024/01/17 11:42:55;;;;;;;7.68;3.63;;;;;;;-6.42;78.12;98914.31;4895171;29;20045;-71
2024/01/17 11:45:53;;;;;;;9.40;3.63;;;;;;;-6.47;78.26;98913.25;4878065;29;20040;-71
2024/01/17 11:48:28;;;;;;;6.95;3.72;;;;;;;-6.00;78.19;98999.75;4897828;29;20059;-71